createdAt,value
2022-08-24T00:02:21.543Z,100058.38
2022-08-24T00:07:27.560Z,100065.72
2022-08-24T00:12:31.459Z,100070.25
2022-08-24T00:17:34.317Z,100062.28
2022-08-24T00:22:36.089Z,100062.09
2022-08-24T00:27:39.654Z,100060.66
2022-08-24T00:32:42.906Z,100063.63
2022-08-24T00:37:45.993Z,100059.88
2022-08-24T00:42:48.154Z,100058.56
2022-08-24T00:47:59.222Z,100061.00
2022-08-24T00:53:04.497Z,100057.56
2022-08-24T00:58:16.937Z,100062.81
2022-08-24T01:03:19.447Z,100058.81
2022-08-24T01:08:23.319Z,100057.53
2022-08-24T01:13:25.822Z,100056.53
2022-08-24T01:18:47.271Z,100060.16
2022-08-24T01:23:55.241Z,100061.41
2022-08-24T01:29:02.965Z,100062.22
2022-08-24T01:34:06.988Z,100066.16
2022-08-24T01:39:15.456Z,100061.06
2022-08-24T01:44:19.704Z,100062.22
2022-08-24T01:49:24.876Z,100059.94
2022-08-24T01:54:27.685Z,100055.75
2022-08-24T01:59:29.585Z,100059.75
2022-08-24T02:04:33.871Z,100056.69
2022-08-24T02:09:36.760Z,100054.16
2022-08-24T02:14:39.601Z,100058.81
2022-08-24T02:19:41.708Z,100062.63
2022-08-24T02:24:43.532Z,100053.88
2022-08-24T02:29:46.138Z,100044.66
2022-08-24T02:34:48.057Z,100047.78
2022-08-24T02:39:49.838Z,100056.38
2022-08-24T02:44:55.292Z,100058.06
2022-08-24T02:49:57.523Z,100057.03
2022-08-24T02:55:00.191Z,100058.44
2022-08-24T03:00:04.965Z,100071.47
2022-08-24T03:05:10.297Z,100068.75
2022-08-24T03:10:12.905Z,100068.31
2022-08-24T03:15:15.205Z,100073.16
2022-08-24T03:20:20.193Z,100069.78
2022-08-24T03:25:24.746Z,100078.13
2022-08-24T03:30:26.715Z,100080.47
2022-08-24T03:35:28.868Z,100092.59
2022-08-24T03:40:33.316Z,100087.34
2022-08-24T03:45:35.262Z,100104.09
2022-08-24T03:50:37.252Z,100102.94
2022-08-24T03:55:38.957Z,100104.00
2022-08-24T04:00:42.767Z,100107.59
2022-08-24T04:05:47.604Z,100109.72
2022-08-24T04:10:49.939Z,100112.66
2022-08-24T04:15:53.045Z,100116.44
2022-08-24T04:20:54.818Z,100118.50
2022-08-24T04:26:02.884Z,100111.38
2022-08-24T04:31:06.786Z,100114.06
2022-08-24T04:36:17.176Z,100117.22
2022-08-24T04:41:27.408Z,100105.50
2022-08-24T04:46:34.092Z,100116.53
2022-08-24T04:51:36.836Z,100114.06
2022-08-24T04:56:40.083Z,100125.06
2022-08-24T05:01:42.840Z,100131.13
2022-08-24T05:06:45.439Z,100129.22
2022-08-24T05:11:49.781Z,100136.88
2022-08-24T05:16:56.781Z,100140.19
2022-08-24T05:21:58.844Z,100134.50
2022-08-24T05:27:00.600Z,100145.72
2022-08-24T05:32:04.139Z,100143.91
2022-08-24T05:37:06.690Z,100140.72
2022-08-24T05:42:31.769Z,100141.84
2022-08-24T05:47:34.735Z,100136.09
2022-08-24T05:52:43.605Z,100148.47
2022-08-24T05:57:45.884Z,100151.97
2022-08-24T06:02:53.064Z,100152.94
2022-08-24T06:07:56.578Z,100155.84
2022-08-24T06:12:58.296Z,100158.19
2022-08-24T06:18:00.156Z,100165.84
2022-08-24T06:23:02.130Z,100154.88
2022-08-24T06:28:10.662Z,100163.38
2022-08-24T06:33:12.851Z,100160.94
2022-08-24T06:38:19.941Z,100156.94
2022-08-24T06:43:24.539Z,100159.56
2022-08-24T06:48:28.534Z,100166.78
2022-08-24T06:53:30.242Z,100168.25
2022-08-24T06:58:33.313Z,100168.59
2022-08-24T07:03:36.434Z,100173.06
2022-08-24T07:08:53.500Z,100161.56
2022-08-24T07:13:55.455Z,100173.03
2022-08-24T07:18:59.001Z,100173.78
2022-08-24T07:24:03.437Z,100168.88
2022-08-24T07:29:43.618Z,100176.69
2022-08-24T07:34:37.668Z,100177.38
2022-08-24T07:39:41.074Z,100179.72
2022-08-24T07:44:46.579Z,100178.00
2022-08-24T07:49:48.410Z,100182.31
2022-08-24T07:54:50.162Z,100192.22
2022-08-24T07:59:51.959Z,100182.56
2022-08-24T08:04:56.896Z,100184.94
2022-08-24T08:10:01.401Z,100190.34
2022-08-24T08:15:09.885Z,100198.06
2022-08-24T08:20:15.610Z,100200.84
2022-08-24T08:25:22.019Z,100207.69
2022-08-24T08:30:24.608Z,100208.53
2022-08-24T08:35:27.361Z,100206.75
2022-08-24T08:40:58.105Z,100212.50
2022-08-24T08:46:00.070Z,100225.34
2022-08-24T08:51:41.502Z,100216.03
2022-08-24T08:57:01.537Z,100205.47
2022-08-24T09:02:33.074Z,100205.88
2022-08-24T09:07:52.895Z,100209.44
2022-08-24T09:13:12.654Z,100206.69
2022-08-24T09:18:37.818Z,100201.63
2022-08-24T09:24:02.982Z,100204.50
2022-08-24T09:29:42.787Z,100196.00
2022-08-24T09:35:06.812Z,100184.53
2022-08-24T09:40:27.192Z,100181.88
2022-08-24T09:45:44.528Z,100177.72
2022-08-24T09:51:04.157Z,100171.63
2022-08-24T09:56:27.993Z,100168.69
2022-08-24T10:01:35.438Z,100164.16
2022-08-24T10:06:53.972Z,100162.56
2022-08-24T10:12:07.766Z,100156.84
2022-08-24T10:17:43.195Z,100161.03
2022-08-24T10:23:03.395Z,100148.91
2022-08-24T10:28:26.706Z,100154.88
2022-08-24T10:33:44.269Z,100152.38
2022-08-24T10:39:23.405Z,100139.06
2022-08-24T10:44:57.521Z,100147.69
2022-08-24T10:50:27.927Z,100141.78
2022-08-24T10:55:34.912Z,100137.13
2022-08-24T11:00:37.064Z,100135.34
2022-08-24T11:05:49.607Z,100137.91
2022-08-24T11:11:11.302Z,100135.03
2022-08-24T11:16:23.940Z,100141.38
2022-08-24T11:21:52.705Z,100144.22
2022-08-24T11:27:06.932Z,100144.81
2022-08-24T11:32:08.619Z,100145.72
2022-08-24T11:37:16.001Z,100148.91
2022-08-24T11:42:43.007Z,100144.06
2022-08-24T11:48:05.444Z,100143.00
2022-08-24T11:53:12.155Z,100142.38
2022-08-24T11:58:27.079Z,100148.41
2022-08-24T12:04:10.024Z,100153.09
2022-08-24T12:09:30.136Z,100157.41
2022-08-24T12:14:42.916Z,100153.31
2022-08-24T12:19:50.034Z,100150.00
2022-08-24T12:24:55.709Z,100137.53
2022-08-24T12:30:16.481Z,100136.31
2022-08-24T12:35:35.134Z,100134.00
2022-08-24T12:40:42.240Z,100133.41
2022-08-24T12:45:44.865Z,100133.06
2022-08-24T12:50:52.205Z,100130.16
2022-08-24T12:56:22.838Z,100131.38
2022-08-24T13:01:31.118Z,100130.00
2022-08-24T13:06:55.282Z,100135.97
2022-08-24T13:12:38.839Z,100126.06
2022-08-24T13:17:41.896Z,100122.13
2022-08-24T13:23:05.357Z,100117.91
2022-08-24T13:28:10.598Z,100122.34
2022-08-24T13:33:17.842Z,100118.53
2022-08-24T13:38:34.607Z,100115.88
2022-08-24T13:43:42.552Z,100117.91
2022-08-24T13:48:53.419Z,100105.59
2022-08-24T13:53:55.104Z,100107.75
2022-08-24T13:59:17.633Z,100114.25
2022-08-24T14:04:25.773Z,100102.16
2022-08-24T14:09:37.916Z,100111.69
2022-08-24T14:14:51.468Z,100097.84
2022-08-24T14:20:14.432Z,100090.66
2022-08-24T14:25:28.088Z,100095.34
2022-08-24T14:30:29.769Z,100085.94
2022-08-24T14:35:47.030Z,100084.28
2022-08-24T14:41:18.393Z,100083.94
2022-08-24T14:46:40.625Z,100079.56
2022-08-24T14:51:52.761Z,100077.13
2022-08-24T14:56:55.021Z,100082.06
2022-08-24T15:02:35.561Z,100074.63
2022-08-24T15:07:37.354Z,100074.34
2022-08-24T15:12:54.286Z,100079.13
2022-08-24T15:18:06.943Z,100060.06
2022-08-24T15:23:32.060Z,100067.91
2022-08-24T15:28:34.266Z,100057.97
2022-08-24T15:33:57.840Z,100050.25
2022-08-24T15:39:00.530Z,100062.75
2022-08-24T15:44:23.423Z,100059.63
2022-08-24T15:49:31.065Z,100059.88
2022-08-24T15:54:43.465Z,100064.03
2022-08-24T15:59:49.110Z,100051.28
2022-08-24T16:04:51.773Z,100052.31
2022-08-24T16:10:25.989Z,100042.94
2022-08-24T16:15:27.693Z,100050.13
2022-08-24T16:20:33.857Z,100046.03
2022-08-24T16:25:41.062Z,100054.31
2022-08-24T16:30:47.144Z,100048.13
2022-08-24T16:35:50.610Z,100047.63
2022-08-24T16:40:52.400Z,100048.09
2022-08-24T16:45:54.897Z,100039.22
2022-08-24T16:50:56.948Z,100036.94
2022-08-24T16:55:58.920Z,100049.97
2022-08-24T17:01:01.795Z,100040.94
2022-08-24T17:06:03.520Z,100042.09
2022-08-24T17:11:05.826Z,100049.41
2022-08-24T17:16:08.974Z,100042.97
2022-08-24T17:21:10.702Z,100045.31
2022-08-24T17:26:20.178Z,100045.50
2022-08-24T17:31:24.887Z,100058.97
2022-08-24T17:36:32.327Z,100064.16
2022-08-24T17:41:34.762Z,100082.22
2022-08-24T17:46:37.293Z,100081.50
2022-08-24T17:51:39.152Z,100088.03
2022-08-24T17:56:44.669Z,100084.28
2022-08-24T18:01:50.208Z,100084.56
2022-08-24T18:06:52.441Z,100096.88
2022-08-24T18:11:54.111Z,100100.31
2022-08-24T18:16:58.904Z,100100.75
2022-08-24T18:22:02.008Z,100102.91
2022-08-24T18:27:10.087Z,100103.09
2022-08-24T18:32:13.476Z,100110.25
2022-08-24T18:37:15.142Z,100114.09
2022-08-24T18:42:17.669Z,100128.00
2022-08-24T18:47:19.306Z,100130.47
2022-08-24T18:52:21.540Z,100136.16
2022-08-24T18:57:23.358Z,100138.19
2022-08-24T19:02:31.482Z,100136.22
2022-08-24T19:07:36.691Z,100143.19
2022-08-24T19:12:43.988Z,100140.84
2022-08-24T19:17:48.959Z,100140.63
2022-08-24T19:22:51.268Z,100146.16
2022-08-24T19:27:55.112Z,100150.75
2022-08-24T19:32:57.290Z,100151.44
2022-08-24T19:37:58.949Z,100146.81
2022-08-24T19:43:02.631Z,100147.09
2022-08-24T19:48:04.764Z,100155.81
2022-08-24T19:53:07.023Z,100149.81
2022-08-24T19:58:16.041Z,100149.56
2022-08-24T20:03:17.698Z,100159.09
2022-08-24T20:08:20.527Z,100154.06
2022-08-24T20:13:22.166Z,100159.22
2022-08-24T20:18:30.033Z,100161.81
2022-08-24T20:23:31.839Z,100167.13
2022-08-24T20:28:46.249Z,100158.91
2022-08-24T20:33:48.381Z,100165.22
2022-08-24T20:38:51.016Z,100161.66
2022-08-24T20:43:52.921Z,100158.59
2022-08-24T20:48:56.025Z,100156.28
2022-08-24T20:53:58.014Z,100160.69
2022-08-24T20:59:09.868Z,100155.41
2022-08-24T21:04:11.807Z,100159.91
2022-08-24T21:09:14.208Z,100158.50
2022-08-24T21:14:16.448Z,100154.78
2022-08-24T21:19:18.130Z,100157.19
2022-08-24T21:24:19.851Z,100166.25
2022-08-24T21:29:21.647Z,100165.84
2022-08-24T21:34:41.906Z,100165.81
2022-08-24T21:39:44.624Z,100167.84
2022-08-24T21:44:46.286Z,100172.66
2022-08-24T21:49:48.978Z,100172.34
2022-08-24T21:54:50.649Z,100174.22
2022-08-24T21:59:52.377Z,100178.69
2022-08-24T22:04:56.814Z,100183.03
2022-08-24T22:09:58.663Z,100178.88
2022-08-24T22:15:03.473Z,100180.34
2022-08-24T22:20:07.838Z,100176.41
2022-08-24T22:25:13.060Z,100164.44
2022-08-24T22:30:18.286Z,100163.81
2022-08-24T22:35:20.076Z,100168.28
2022-08-24T22:40:21.781Z,100158.44
2022-08-24T22:45:23.450Z,100153.84
2022-08-24T22:50:25.141Z,100147.75
2022-08-24T22:55:29.956Z,100153.25
2022-08-24T23:00:31.887Z,100146.94
2022-08-24T23:05:33.551Z,100140.88
2022-08-24T23:10:35.217Z,100148.16
2022-08-24T23:15:36.884Z,100150.03
2022-08-24T23:20:38.580Z,100146.50
2022-08-24T23:25:40.225Z,100142.38
2022-08-24T23:30:41.899Z,100148.63
2022-08-24T23:35:43.983Z,100143.19
2022-08-24T23:40:46.582Z,100144.03
2022-08-24T23:45:48.246Z,100128.34
2022-08-24T23:50:50.011Z,100139.44
2022-08-24T23:55:52.597Z,100130.25
